sensor_id;sensor_type;location;lat;lon;timestamp;P1;durP1;ratioP1;P2;durP2;ratioP2
73869;SDS011;64924;42.140;24.762;2023-03-24T00:01:50;31.88;;;23.13;;
73869;SDS011;64924;42.140;24.762;2023-03-24T00:04:15;32.50;;;23.73;;
73869;SDS011;64924;42.140;24.762;2023-03-24T00:06:41;32.75;;;24.58;;
73869;SDS011;64924;42.140;24.762;2023-03-24T00:09:08;32.75;;;23.83;;
73869;SDS011;64924;42.140;24.762;2023-03-24T00:11:34;30.63;;;23.10;;
73869;SDS011;64924;42.140;24.762;2023-03-24T00:14:00;32.83;;;23.40;;
73869;SDS011;64924;42.140;24.762;2023-03-24T00:16:27;32.65;;;24.38;;
73869;SDS011;64924;42.140;24.762;2023-03-24T00:18:53;33.45;;;23.42;;
73869;SDS011;64924;42.140;24.762;2023-03-24T00:21:19;34.58;;;24.50;;
73869;SDS011;64924;42.140;24.762;2023-03-24T00:23:46;29.27;;;22.58;;
73869;SDS011;64924;42.140;24.762;2023-03-24T00:26:13;31.52;;;23.77;;
73869;SDS011;64924;42.140;24.762;2023-03-24T00:28:40;32.60;;;23.25;;
73869;SDS011;64924;42.140;24.762;2023-03-24T00:31:08;34.38;;;24.00;;
73869;SDS011;64924;42.140;24.762;2023-03-24T00:33:34;36.92;;;25.30;;
73869;SDS011;64924;42.140;24.762;2023-03-24T00:36:01;33.63;;;24.48;;
73869;SDS011;64924;42.140;24.762;2023-03-24T00:38:29;39.45;;;26.48;;
73869;SDS011;64924;42.140;24.762;2023-03-24T00:40:56;36.63;;;25.55;;
73869;SDS011;64924;42.140;24.762;2023-03-24T00:43:23;38.20;;;27.45;;
73869;SDS011;64924;42.140;24.762;2023-03-24T00:45:49;37.58;;;27.10;;
73869;SDS011;64924;42.140;24.762;2023-03-24T00:48:16;36.55;;;25.95;;
73869;SDS011;64924;42.140;24.762;2023-03-24T00:50:44;36.83;;;26.80;;
73869;SDS011;64924;42.140;24.762;2023-03-24T00:53:12;37.00;;;25.65;;
73869;SDS011;64924;42.140;24.762;2023-03-24T00:55:44;39.90;;;27.05;;
73869;SDS011;64924;42.140;24.762;2023-03-24T00:58:13;38.72;;;26.38;;
73869;SDS011;64924;42.140;24.762;2023-03-24T01:00:46;36.87;;;25.53;;
73869;SDS011;64924;42.140;24.762;2023-03-24T01:03:14;36.83;;;26.20;;
73869;SDS011;64924;42.140;24.762;2023-03-24T01:05:40;33.47;;;24.45;;
73869;SDS011;64924;42.140;24.762;2023-03-24T01:08:07;37.28;;;25.75;;
73869;SDS011;64924;42.140;24.762;2023-03-24T01:10:35;38.83;;;25.83;;
73869;SDS011;64924;42.140;24.762;2023-03-24T01:13:20;37.17;;;24.38;;
73869;SDS011;64924;42.140;24.762;2023-03-24T01:15:53;34.00;;;23.48;;
73869;SDS011;64924;42.140;24.762;2023-03-24T01:18:20;39.63;;;25.25;;
73869;SDS011;64924;42.140;24.762;2023-03-24T01:20:47;35.58;;;24.40;;
73869;SDS011;64924;42.140;24.762;2023-03-24T01:23:15;39.28;;;25.27;;
73869;SDS011;64924;42.140;24.762;2023-03-24T01:25:44;35.03;;;24.60;;
73869;SDS011;64924;42.140;24.762;2023-03-24T01:28:12;40.97;;;27.92;;
73869;SDS011;64924;42.140;24.762;2023-03-24T01:30:42;38.83;;;27.17;;
73869;SDS011;64924;42.140;24.762;2023-03-24T01:33:09;38.65;;;26.95;;
73869;SDS011;64924;42.140;24.762;2023-03-24T01:35:35;39.10;;;27.15;;
73869;SDS011;64924;42.140;24.762;2023-03-24T01:38:04;41.30;;;27.88;;
73869;SDS011;64924;42.140;24.762;2023-03-24T01:40:34;38.70;;;27.17;;
73869;SDS011;64924;42.140;24.762;2023-03-24T01:43:02;41.65;;;28.33;;
73869;SDS011;64924;42.140;24.762;2023-03-24T01:48:07;41.03;;;28.27;;
73869;SDS011;64924;42.140;24.762;2023-03-24T01:50:35;35.95;;;26.38;;
73869;SDS011;64924;42.140;24.762;2023-03-24T01:53:03;39.40;;;27.75;;
73869;SDS011;64924;42.140;24.762;2023-03-24T01:55:28;42.30;;;28.08;;
73869;SDS011;64924;42.140;24.762;2023-03-24T01:57:56;39.80;;;28.02;;
73869;SDS011;64924;42.140;24.762;2023-03-24T02:00:24;42.67;;;29.23;;
73869;SDS011;64924;42.140;24.762;2023-03-24T02:02:52;39.42;;;28.50;;
73869;SDS011;64924;42.140;24.762;2023-03-24T02:05:23;40.03;;;28.70;;
73869;SDS011;64924;42.140;24.762;2023-03-24T02:10:33;45.90;;;28.77;;
73869;SDS011;64924;42.140;24.762;2023-03-24T02:13:00;46.53;;;29.92;;
73869;SDS011;64924;42.140;24.762;2023-03-24T02:15:28;38.03;;;27.83;;
73869;SDS011;64924;42.140;24.762;2023-03-24T02:20:29;38.10;;;27.70;;
73869;SDS011;64924;42.140;24.762;2023-03-24T02:25:51;38.97;;;25.88;;
73869;SDS011;64924;42.140;24.762;2023-03-24T02:40:38;32.58;;;23.65;;
73869;SDS011;64924;42.140;24.762;2023-03-24T02:46:25;29.88;;;22.05;;
73869;SDS011;64924;42.140;24.762;2023-03-24T02:48:46;28.13;;;21.38;;
73869;SDS011;64924;42.140;24.762;2023-03-24T02:51:35;27.25;;;19.88;;
73869;SDS011;64924;42.140;24.762;2023-03-24T02:54:13;28.90;;;20.00;;
73869;SDS011;64924;42.140;24.762;2023-03-24T02:56:51;21.43;;;14.60;;
73869;SDS011;64924;42.140;24.762;2023-03-24T02:59:33;24.95;;;18.17;;
73869;SDS011;64924;42.140;24.762;2023-03-24T03:02:09;29.25;;;18.70;;
73869;SDS011;64924;42.140;24.762;2023-03-24T03:04:41;25.38;;;17.38;;
73869;SDS011;64924;42.140;24.762;2023-03-24T03:07:14;24.60;;;17.08;;
73869;SDS011;64924;42.140;24.762;2023-03-24T03:09:56;27.95;;;19.27;;
73869;SDS011;64924;42.140;24.762;2023-03-24T03:12:26;30.35;;;19.58;;
73869;SDS011;64924;42.140;24.762;2023-03-24T03:14:59;27.05;;;18.70;;
73869;SDS011;64924;42.140;24.762;2023-03-24T03:17:32;26.48;;;19.05;;
73869;SDS011;64924;42.140;24.762;2023-03-24T03:20:21;24.58;;;17.83;;
73869;SDS011;64924;42.140;24.762;2023-03-24T03:22:59;27.90;;;18.65;;
73869;SDS011;64924;42.140;24.762;2023-03-24T03:25:32;26.13;;;18.30;;
73869;SDS011;64924;42.140;24.762;2023-03-24T03:28:03;23.77;;;17.83;;
73869;SDS011;64924;42.140;24.762;2023-03-24T03:30:35;27.95;;;18.88;;
73869;SDS011;64924;42.140;24.762;2023-03-24T03:33:08;23.05;;;16.65;;
73869;SDS011;64924;42.140;24.762;2023-03-24T03:41:30;21.83;;;15.70;;
73869;SDS011;64924;42.140;24.762;2023-03-24T03:43:56;21.60;;;16.35;;
73869;SDS011;64924;42.140;24.762;2023-03-24T03:46:21;26.58;;;18.35;;
73869;SDS011;64924;42.140;24.762;2023-03-24T03:48:47;28.73;;;20.70;;
73869;SDS011;64924;42.140;24.762;2023-03-24T03:51:13;29.90;;;19.88;;
73869;SDS011;64924;42.140;24.762;2023-03-24T03:53:59;31.63;;;21.38;;
73869;SDS011;64924;42.140;24.762;2023-03-24T03:56:28;31.92;;;21.08;;
73869;SDS011;64924;42.140;24.762;2023-03-24T03:58:56;30.38;;;19.88;;
73869;SDS011;64924;42.140;24.762;2023-03-24T04:01:23;30.52;;;20.63;;
73869;SDS011;64924;42.140;24.762;2023-03-24T04:20:25;28.08;;;19.25;;
73869;SDS011;64924;42.140;24.762;2023-03-24T04:23:40;29.90;;;20.13;;
73869;SDS011;64924;42.140;24.762;2023-03-24T04:26:14;27.90;;;19.15;;
73869;SDS011;64924;42.140;24.762;2023-03-24T04:29:11;29.33;;;18.73;;
73869;SDS011;64924;42.140;24.762;2023-03-24T04:34:44;26.35;;;18.40;;
73869;SDS011;64924;42.140;24.762;2023-03-24T04:37:19;27.30;;;18.38;;
73869;SDS011;64924;42.140;24.762;2023-03-24T04:39:48;27.95;;;18.13;;
73869;SDS011;64924;42.140;24.762;2023-03-24T04:42:40;31.65;;;19.02;;
73869;SDS011;64924;42.140;24.762;2023-03-24T04:45:17;26.77;;;17.80;;
73869;SDS011;64924;42.140;24.762;2023-03-24T04:47:45;26.25;;;16.63;;
73869;SDS011;64924;42.140;24.762;2023-03-24T04:50:21;22.05;;;15.82;;
73869;SDS011;64924;42.140;24.762;2023-03-24T04:52:56;28.05;;;18.50;;
73869;SDS011;64924;42.140;24.762;2023-03-24T04:58:10;26.15;;;18.27;;
73869;SDS011;64924;42.140;24.762;2023-03-24T05:00:35;32.53;;;17.75;;
73869;SDS011;64924;42.140;24.762;2023-03-24T05:03:01;30.25;;;19.40;;
73869;SDS011;64924;42.140;24.762;2023-03-24T05:05:27;25.52;;;17.63;;
73869;SDS011;64924;42.140;24.762;2023-03-24T05:07:54;33.03;;;17.00;;
73869;SDS011;64924;42.140;24.762;2023-03-24T05:10:21;27.40;;;16.85;;
73869;SDS011;64924;42.140;24.762;2023-03-24T05:12:47;26.17;;;17.17;;
73869;SDS011;64924;42.140;24.762;2023-03-24T05:15:13;24.63;;;17.88;;
73869;SDS011;64924;42.140;24.762;2023-03-24T05:17:39;24.02;;;16.95;;
73869;SDS011;64924;42.140;24.762;2023-03-24T05:20:05;21.45;;;16.88;;
73869;SDS011;64924;42.140;24.762;2023-03-24T05:22:36;22.65;;;15.80;;
73869;SDS011;64924;42.140;24.762;2023-03-24T05:25:02;21.70;;;14.35;;
73869;SDS011;64924;42.140;24.762;2023-03-24T05:27:28;20.92;;;14.20;;
73869;SDS011;64924;42.140;24.762;2023-03-24T05:29:54;19.42;;;14.38;;
73869;SDS011;64924;42.140;24.762;2023-03-24T05:32:19;18.90;;;13.57;;
73869;SDS011;64924;42.140;24.762;2023-03-24T05:34:45;17.48;;;13.73;;
73869;SDS011;64924;42.140;24.762;2023-03-24T05:37:10;18.27;;;14.88;;
73869;SDS011;64924;42.140;24.762;2023-03-24T05:39:38;18.00;;;13.88;;
73869;SDS011;64924;42.140;24.762;2023-03-24T05:42:04;18.95;;;14.13;;
73869;SDS011;64924;42.140;24.762;2023-03-24T05:44:29;17.17;;;13.23;;
73869;SDS011;64924;42.140;24.762;2023-03-24T05:46:55;18.25;;;13.05;;
73869;SDS011;64924;42.140;24.762;2023-03-24T05:49:20;15.68;;;13.32;;
73869;SDS011;64924;42.140;24.762;2023-03-24T05:51:46;18.40;;;13.32;;
73869;SDS011;64924;42.140;24.762;2023-03-24T05:54:11;17.80;;;13.65;;
73869;SDS011;64924;42.140;24.762;2023-03-24T05:56:37;17.35;;;13.65;;
73869;SDS011;64924;42.140;24.762;2023-03-24T05:59:02;17.05;;;12.60;;
73869;SDS011;64924;42.140;24.762;2023-03-24T06:01:28;22.33;;;15.23;;
73869;SDS011;64924;42.140;24.762;2023-03-24T06:03:54;18.77;;;14.43;;
73869;SDS011;64924;42.140;24.762;2023-03-24T06:06:20;20.25;;;14.00;;
73869;SDS011;64924;42.140;24.762;2023-03-24T06:08:46;19.48;;;13.13;;
73869;SDS011;64924;42.140;24.762;2023-03-24T06:11:12;19.80;;;13.40;;
73869;SDS011;64924;42.140;24.762;2023-03-24T06:13:38;16.98;;;13.63;;
73869;SDS011;64924;42.140;24.762;2023-03-24T06:16:04;18.05;;;13.98;;
73869;SDS011;64924;42.140;24.762;2023-03-24T06:18:30;20.75;;;14.52;;
73869;SDS011;64924;42.140;24.762;2023-03-24T06:20:57;23.42;;;15.07;;
73869;SDS011;64924;42.140;24.762;2023-03-24T06:23:24;21.02;;;15.10;;
73869;SDS011;64924;42.140;24.762;2023-03-24T06:25:52;27.10;;;15.48;;
73869;SDS011;64924;42.140;24.762;2023-03-24T06:28:23;21.52;;;13.90;;
73869;SDS011;64924;42.140;24.762;2023-03-24T06:30:50;22.73;;;13.95;;
73869;SDS011;64924;42.140;24.762;2023-03-24T06:33:16;18.38;;;15.00;;
73869;SDS011;64924;42.140;24.762;2023-03-24T06:35:41;20.88;;;14.98;;
73869;SDS011;64924;42.140;24.762;2023-03-24T06:38:07;19.35;;;14.38;;
73869;SDS011;64924;42.140;24.762;2023-03-24T06:40:33;25.27;;;15.43;;
73869;SDS011;64924;42.140;24.762;2023-03-24T06:42:59;25.23;;;14.50;;
73869;SDS011;64924;42.140;24.762;2023-03-24T06:45:25;21.10;;;14.52;;
73869;SDS011;64924;42.140;24.762;2023-03-24T06:47:51;19.00;;;14.27;;
73869;SDS011;64924;42.140;24.762;2023-03-24T06:50:20;15.63;;;12.73;;
73869;SDS011;64924;42.140;24.762;2023-03-24T06:52:46;14.73;;;12.32;;
73869;SDS011;64924;42.140;24.762;2023-03-24T06:55:11;17.77;;;12.80;;
73869;SDS011;64924;42.140;24.762;2023-03-24T06:57:37;15.93;;;12.68;;
73869;SDS011;64924;42.140;24.762;2023-03-24T07:00:03;14.23;;;11.00;;
73869;SDS011;64924;42.140;24.762;2023-03-24T07:02:30;15.45;;;12.80;;
73869;SDS011;64924;42.140;24.762;2023-03-24T07:05:00;15.70;;;12.07;;
73869;SDS011;64924;42.140;24.762;2023-03-24T07:07:30;15.43;;;11.77;;
73869;SDS011;64924;42.140;24.762;2023-03-24T07:09:56;16.77;;;13.23;;
73869;SDS011;64924;42.140;24.762;2023-03-24T07:12:22;21.73;;;13.05;;
73869;SDS011;64924;42.140;24.762;2023-03-24T07:14:48;20.80;;;14.40;;
73869;SDS011;64924;42.140;24.762;2023-03-24T07:17:13;18.27;;;14.05;;
73869;SDS011;64924;42.140;24.762;2023-03-24T07:19:39;18.75;;;13.48;;
73869;SDS011;64924;42.140;24.762;2023-03-24T07:22:04;21.83;;;15.57;;
73869;SDS011;64924;42.140;24.762;2023-03-24T07:24:32;23.83;;;15.63;;
73869;SDS011;64924;42.140;24.762;2023-03-24T07:26:59;17.85;;;14.77;;
73869;SDS011;64924;42.140;24.762;2023-03-24T07:29:25;27.00;;;15.88;;
73869;SDS011;64924;42.140;24.762;2023-03-24T07:31:51;22.90;;;16.48;;
73869;SDS011;64924;42.140;24.762;2023-03-24T07:34:18;19.20;;;15.60;;
73869;SDS011;64924;42.140;24.762;2023-03-24T07:36:44;21.58;;;15.63;;
73869;SDS011;64924;42.140;24.762;2023-03-24T07:39:10;23.15;;;16.15;;
73869;SDS011;64924;42.140;24.762;2023-03-24T07:41:37;18.73;;;14.52;;
73869;SDS011;64924;42.140;24.762;2023-03-24T07:44:02;19.15;;;15.10;;
73869;SDS011;64924;42.140;24.762;2023-03-24T07:46:28;24.52;;;15.88;;
73869;SDS011;64924;42.140;24.762;2023-03-24T07:48:53;18.88;;;15.02;;
73869;SDS011;64924;42.140;24.762;2023-03-24T07:51:19;19.30;;;15.20;;
73869;SDS011;64924;42.140;24.762;2023-03-24T07:53:44;22.08;;;16.15;;
73869;SDS011;64924;42.140;24.762;2023-03-24T07:56:12;23.60;;;16.25;;
73869;SDS011;64924;42.140;24.762;2023-03-24T07:58:38;23.50;;;17.02;;
73869;SDS011;64924;42.140;24.762;2023-03-24T08:01:07;23.02;;;18.30;;
73869;SDS011;64924;42.140;24.762;2023-03-24T08:03:36;23.88;;;16.75;;
73869;SDS011;64924;42.140;24.762;2023-03-24T08:06:02;26.02;;;16.42;;
73869;SDS011;64924;42.140;24.762;2023-03-24T08:08:29;22.00;;;16.80;;
73869;SDS011;64924;42.140;24.762;2023-03-24T08:10:56;24.30;;;16.98;;
73869;SDS011;64924;42.140;24.762;2023-03-24T08:13:21;25.27;;;18.23;;
73869;SDS011;64924;42.140;24.762;2023-03-24T08:15:47;24.30;;;16.30;;
73869;SDS011;64924;42.140;24.762;2023-03-24T08:18:13;22.83;;;17.80;;
73869;SDS011;64924;42.140;24.762;2023-03-24T08:20:38;21.85;;;17.48;;
73869;SDS011;64924;42.140;24.762;2023-03-24T08:23:04;29.45;;;19.52;;
73869;SDS011;64924;42.140;24.762;2023-03-24T08:25:30;28.27;;;17.25;;
73869;SDS011;64924;42.140;24.762;2023-03-24T08:27:56;22.05;;;15.95;;
73869;SDS011;64924;42.140;24.762;2023-03-24T08:30:22;23.02;;;16.38;;
73869;SDS011;64924;42.140;24.762;2023-03-24T08:32:53;24.52;;;16.65;;
73869;SDS011;64924;42.140;24.762;2023-03-24T08:35:25;26.48;;;16.60;;
73869;SDS011;64924;42.140;24.762;2023-03-24T08:37:52;22.98;;;18.25;;
73869;SDS011;64924;42.140;24.762;2023-03-24T08:40:19;34.13;;;16.85;;
73869;SDS011;64924;42.140;24.762;2023-03-24T08:42:48;25.90;;;16.55;;
73869;SDS011;64924;42.140;24.762;2023-03-24T08:45:17;23.33;;;14.30;;
73869;SDS011;64924;42.140;24.762;2023-03-24T08:47:46;22.52;;;12.07;;
73869;SDS011;64924;42.140;24.762;2023-03-24T08:50:13;29.10;;;17.30;;
73869;SDS011;64924;42.140;24.762;2023-03-24T08:52:39;26.98;;;16.95;;
73869;SDS011;64924;42.140;24.762;2023-03-24T08:55:06;23.45;;;17.02;;
73869;SDS011;64924;42.140;24.762;2023-03-24T08:57:33;22.55;;;16.55;;
73869;SDS011;64924;42.140;24.762;2023-03-24T08:59:58;21.17;;;16.23;;
73869;SDS011;64924;42.140;24.762;2023-03-24T09:02:24;24.35;;;15.82;;
73869;SDS011;64924;42.140;24.762;2023-03-24T09:04:50;20.10;;;15.13;;
73869;SDS011;64924;42.140;24.762;2023-03-24T09:07:19;20.88;;;14.60;;
73869;SDS011;64924;42.140;24.762;2023-03-24T09:09:44;19.90;;;15.30;;
73869;SDS011;64924;42.140;24.762;2023-03-24T09:12:10;22.52;;;16.20;;
73869;SDS011;64924;42.140;24.762;2023-03-24T09:14:36;21.35;;;15.68;;
73869;SDS011;64924;42.140;24.762;2023-03-24T09:17:01;23.67;;;16.33;;
73869;SDS011;64924;42.140;24.762;2023-03-24T09:19:27;26.50;;;16.23;;
73869;SDS011;64924;42.140;24.762;2023-03-24T09:21:52;25.58;;;16.10;;
73869;SDS011;64924;42.140;24.762;2023-03-24T09:24:18;26.55;;;14.77;;
73869;SDS011;64924;42.140;24.762;2023-03-24T09:26:43;34.03;;;16.10;;
73869;SDS011;64924;42.140;24.762;2023-03-24T09:29:09;24.50;;;15.45;;
73869;SDS011;64924;42.140;24.762;2023-03-24T09:31:34;18.63;;;15.45;;
73869;SDS011;64924;42.140;24.762;2023-03-24T09:34:00;21.25;;;14.80;;
73869;SDS011;64924;42.140;24.762;2023-03-24T09:36:25;21.80;;;14.15;;
73869;SDS011;64924;42.140;24.762;2023-03-24T09:38:51;21.20;;;13.98;;
73869;SDS011;64924;42.140;24.762;2023-03-24T09:41:18;23.70;;;14.43;;
73869;SDS011;64924;42.140;24.762;2023-03-24T09:43:58;32.17;;;15.70;;
73869;SDS011;64924;42.140;24.762;2023-03-24T09:48:54;21.02;;;14.23;;
73869;SDS011;64924;42.140;24.762;2023-03-24T09:53:51;19.88;;;13.25;;
73869;SDS011;64924;42.140;24.762;2023-03-24T09:56:22;21.58;;;13.18;;
73869;SDS011;64924;42.140;24.762;2023-03-24T09:59:34;16.73;;;12.65;;
73869;SDS011;64924;42.140;24.762;2023-03-24T10:01:36;16.85;;;12.20;;
73869;SDS011;64924;42.140;24.762;2023-03-24T10:04:02;15.65;;;12.95;;
73869;SDS011;64924;42.140;24.762;2023-03-24T10:06:34;19.73;;;12.80;;
73869;SDS011;64924;42.140;24.762;2023-03-24T10:09:20;19.17;;;11.90;;
73869;SDS011;64924;42.140;24.762;2023-03-24T10:11:50;14.10;;;11.15;;
73869;SDS011;64924;42.140;24.762;2023-03-24T10:14:37;18.02;;;11.57;;
73869;SDS011;64924;42.140;24.762;2023-03-24T10:17:17;15.30;;;11.50;;
73869;SDS011;64924;42.140;24.762;2023-03-24T10:28:02;12.50;;;10.05;;
73869;SDS011;64924;42.140;24.762;2023-03-24T10:30:49;13.80;;;11.02;;
73869;SDS011;64924;42.140;24.762;2023-03-24T10:33:17;14.23;;;10.60;;
73869;SDS011;64924;42.140;24.762;2023-03-24T10:36:05;13.65;;;10.30;;
73869;SDS011;64924;42.140;24.762;2023-03-24T10:38:42;15.95;;;10.20;;
73869;SDS011;64924;42.140;24.762;2023-03-24T10:43:45;16.90;;;10.20;;
73869;SDS011;64924;42.140;24.762;2023-03-24T10:46:15;10.63;;;8.80;;
73869;SDS011;64924;42.140;24.762;2023-03-24T10:48:45;10.82;;;8.98;;
73869;SDS011;64924;42.140;24.762;2023-03-24T10:51:17;13.65;;;8.35;;
73869;SDS011;64924;42.140;24.762;2023-03-24T10:59:37;15.90;;;11.48;;
73869;SDS011;64924;42.140;24.762;2023-03-24T11:02:18;14.80;;;10.35;;
73869;SDS011;64924;42.140;24.762;2023-03-24T11:05:01;14.57;;;11.23;;
73869;SDS011;64924;42.140;24.762;2023-03-24T11:07:38;12.98;;;10.70;;
73869;SDS011;64924;42.140;24.762;2023-03-24T11:10:16;14.05;;;10.38;;
73869;SDS011;64924;42.140;24.762;2023-03-24T11:15:20;17.80;;;11.35;;
73869;SDS011;64924;42.140;24.762;2023-03-24T11:17:56;15.80;;;11.48;;
73869;SDS011;64924;42.140;24.762;2023-03-24T11:20:32;15.57;;;12.20;;
73869;SDS011;64924;42.140;24.762;2023-03-24T11:23:22;15.30;;;11.35;;
73869;SDS011;64924;42.140;24.762;2023-03-24T11:26:00;15.25;;;10.82;;
73869;SDS011;64924;42.140;24.762;2023-03-24T11:28:26;15.43;;;10.75;;
73869;SDS011;64924;42.140;24.762;2023-03-24T11:30:53;17.02;;;11.65;;
73869;SDS011;64924;42.140;24.762;2023-03-24T11:33:27;13.38;;;10.90;;
73869;SDS011;64924;42.140;24.762;2023-03-24T11:35:59;12.82;;;10.55;;
73869;SDS011;64924;42.140;24.762;2023-03-24T11:38:32;20.23;;;12.13;;
73869;SDS011;64924;42.140;24.762;2023-03-24T11:40:59;12.65;;;10.63;;
73869;SDS011;64924;42.140;24.762;2023-03-24T11:43:29;14.60;;;9.93;;
73869;SDS011;64924;42.140;24.762;2023-03-24T11:50:58;15.10;;;10.15;;
73869;SDS011;64924;42.140;24.762;2023-03-24T11:53:45;15.32;;;10.05;;
73869;SDS011;64924;42.140;24.762;2023-03-24T11:56:25;13.02;;;9.38;;
73869;SDS011;64924;42.140;24.762;2023-03-24T12:01:48;13.45;;;9.45;;
73869;SDS011;64924;42.140;24.762;2023-03-24T12:09:37;14.43;;;9.45;;
73869;SDS011;64924;42.140;24.762;2023-03-24T12:12:49;10.75;;;8.48;;
73869;SDS011;64924;42.140;24.762;2023-03-24T12:15:34;11.75;;;8.10;;
73869;SDS011;64924;42.140;24.762;2023-03-24T12:18:26;12.85;;;8.43;;
73869;SDS011;64924;42.140;24.762;2023-03-24T12:30:01;9.45;;;7.38;;
73869;SDS011;64924;42.140;24.762;2023-03-24T12:32:39;8.98;;;6.68;;
73869;SDS011;64924;42.140;24.762;2023-03-24T12:37:55;12.27;;;8.60;;
73869;SDS011;64924;42.140;24.762;2023-03-24T12:43:33;8.07;;;6.93;;
73869;SDS011;64924;42.140;24.762;2023-03-24T12:54:01;11.93;;;6.75;;
73869;SDS011;64924;42.140;24.762;2023-03-24T12:56:47;14.30;;;6.70;;
73869;SDS011;64924;42.140;24.762;2023-03-24T13:05:05;6.28;;;5.35;;
73869;SDS011;64924;42.140;24.762;2023-03-24T13:07:39;12.73;;;6.25;;
73869;SDS011;64924;42.140;24.762;2023-03-24T13:10:25;9.35;;;5.60;;
73869;SDS011;64924;42.140;24.762;2023-03-24T13:13:02;8.02;;;5.07;;
73869;SDS011;64924;42.140;24.762;2023-03-24T13:15:40;11.77;;;5.10;;
73869;SDS011;64924;42.140;24.762;2023-03-24T13:29:11;7.78;;;5.05;;
73869;SDS011;64924;42.140;24.762;2023-03-24T13:34:42;7.15;;;5.05;;
73869;SDS011;64924;42.140;24.762;2023-03-24T13:39:47;8.15;;;5.40;;
73869;SDS011;64924;42.140;24.762;2023-03-24T13:42:29;9.75;;;5.68;;
73869;SDS011;64924;42.140;24.762;2023-03-24T13:44:56;10.80;;;6.35;;
73869;SDS011;64924;42.140;24.762;2023-03-24T13:47:24;11.30;;;6.82;;
73869;SDS011;64924;42.140;24.762;2023-03-24T13:49:52;12.20;;;6.07;;
73869;SDS011;64924;42.140;24.762;2023-03-24T13:52:39;8.10;;;6.00;;
73869;SDS011;64924;42.140;24.762;2023-03-24T13:57:57;5.55;;;4.57;;
73869;SDS011;64924;42.140;24.762;2023-03-24T14:00:26;9.32;;;5.53;;
73869;SDS011;64924;42.140;24.762;2023-03-24T14:02:53;10.68;;;5.32;;
73869;SDS011;64924;42.140;24.762;2023-03-24T14:23:30;6.05;;;4.80;;
73869;SDS011;64924;42.140;24.762;2023-03-24T14:25:58;6.90;;;4.00;;
73869;SDS011;64924;42.140;24.762;2023-03-24T14:28:27;4.35;;;3.65;;
73869;SDS011;64924;42.140;24.762;2023-03-24T14:31:08;4.25;;;3.85;;
73869;SDS011;64924;42.140;24.762;2023-03-24T14:33:42;6.85;;;4.68;;
73869;SDS011;64924;42.140;24.762;2023-03-24T14:36:37;5.55;;;4.45;;
73869;SDS011;64924;42.140;24.762;2023-03-24T14:39:50;6.90;;;4.70;;
73869;SDS011;64924;42.140;24.762;2023-03-24T14:45:36;5.30;;;4.13;;
73869;SDS011;64924;42.140;24.762;2023-03-24T14:48:15;5.68;;;4.35;;
73869;SDS011;64924;42.140;24.762;2023-03-24T14:51:00;7.25;;;4.07;;
73869;SDS011;64924;42.140;24.762;2023-03-24T14:53:31;7.35;;;4.40;;
73869;SDS011;64924;42.140;24.762;2023-03-24T14:56:01;7.45;;;3.88;;
73869;SDS011;64924;42.140;24.762;2023-03-24T14:58:34;9.13;;;3.58;;
73869;SDS011;64924;42.140;24.762;2023-03-24T15:01:03;8.15;;;3.97;;
73869;SDS011;64924;42.140;24.762;2023-03-24T15:06:29;12.15;;;6.32;;
73869;SDS011;64924;42.140;24.762;2023-03-24T15:08:56;8.23;;;4.03;;
73869;SDS011;64924;42.140;24.762;2023-03-24T15:11:30;5.40;;;3.90;;
73869;SDS011;64924;42.140;24.762;2023-03-24T15:14:02;6.30;;;3.92;;
73869;SDS011;64924;42.140;24.762;2023-03-24T15:16:30;4.75;;;3.97;;
73869;SDS011;64924;42.140;24.762;2023-03-24T15:19:30;7.18;;;4.22;;
73869;SDS011;64924;42.140;24.762;2023-03-24T15:24:31;8.40;;;4.00;;
73869;SDS011;64924;42.140;24.762;2023-03-24T15:29:28;9.73;;;3.65;;
73869;SDS011;64924;42.140;24.762;2023-03-24T15:31:53;5.53;;;3.50;;
73869;SDS011;64924;42.140;24.762;2023-03-24T15:34:26;7.43;;;3.65;;
73869;SDS011;64924;42.140;24.762;2023-03-24T15:36:58;6.15;;;4.03;;
73869;SDS011;64924;42.140;24.762;2023-03-24T15:39:32;5.80;;;3.80;;
73869;SDS011;64924;42.140;24.762;2023-03-24T15:42:03;7.30;;;4.18;;
73869;SDS011;64924;42.140;24.762;2023-03-24T15:44:33;7.20;;;3.83;;
73869;SDS011;64924;42.140;24.762;2023-03-24T15:47:02;6.28;;;3.25;;
73869;SDS011;64924;42.140;24.762;2023-03-24T15:49:33;6.72;;;3.70;;
73869;SDS011;64924;42.140;24.762;2023-03-24T15:52:23;6.82;;;4.53;;
73869;SDS011;64924;42.140;24.762;2023-03-24T15:54:59;6.13;;;3.05;;
73869;SDS011;64924;42.140;24.762;2023-03-24T15:57:39;6.13;;;3.92;;
73869;SDS011;64924;42.140;24.762;2023-03-24T16:00:07;3.78;;;2.83;;
73869;SDS011;64924;42.140;24.762;2023-03-24T16:02:42;5.22;;;3.25;;
73869;SDS011;64924;42.140;24.762;2023-03-24T16:05:24;4.63;;;2.75;;
73869;SDS011;64924;42.140;24.762;2023-03-24T16:08:05;4.72;;;3.10;;
73869;SDS011;64924;42.140;24.762;2023-03-24T16:10:58;5.47;;;3.05;;
73869;SDS011;64924;42.140;24.762;2023-03-24T16:13:33;3.78;;;2.78;;
73869;SDS011;64924;42.140;24.762;2023-03-24T16:18:37;5.05;;;3.10;;
73869;SDS011;64924;42.140;24.762;2023-03-24T16:21:14;5.20;;;2.90;;
73869;SDS011;64924;42.140;24.762;2023-03-24T16:23:58;4.63;;;3.10;;
73869;SDS011;64924;42.140;24.762;2023-03-24T16:26:28;2.95;;;2.17;;
73869;SDS011;64924;42.140;24.762;2023-03-24T16:28:59;9.25;;;2.88;;
73869;SDS011;64924;42.140;24.762;2023-03-24T16:31:41;7.00;;;3.70;;
73869;SDS011;64924;42.140;24.762;2023-03-24T16:34:07;5.43;;;3.42;;
73869;SDS011;64924;42.140;24.762;2023-03-24T16:36:32;3.85;;;3.20;;
73869;SDS011;64924;42.140;24.762;2023-03-24T16:38:58;6.30;;;3.08;;
73869;SDS011;64924;42.140;24.762;2023-03-24T16:41:25;6.55;;;3.97;;
73869;SDS011;64924;42.140;24.762;2023-03-24T16:43:51;7.53;;;3.35;;
73869;SDS011;64924;42.140;24.762;2023-03-24T16:48:44;5.97;;;3.13;;
73869;SDS011;64924;42.140;24.762;2023-03-24T16:51:13;4.78;;;3.35;;
73869;SDS011;64924;42.140;24.762;2023-03-24T16:53:41;5.68;;;3.00;;
73869;SDS011;64924;42.140;24.762;2023-03-24T16:56:08;6.18;;;3.35;;
73869;SDS011;64924;42.140;24.762;2023-03-24T16:58:36;4.93;;;3.55;;
73869;SDS011;64924;42.140;24.762;2023-03-24T17:01:02;4.78;;;3.10;;
73869;SDS011;64924;42.140;24.762;2023-03-24T17:03:28;6.05;;;3.88;;
73869;SDS011;64924;42.140;24.762;2023-03-24T17:05:54;9.00;;;3.38;;
73869;SDS011;64924;42.140;24.762;2023-03-24T17:08:21;6.75;;;3.42;;
73869;SDS011;64924;42.140;24.762;2023-03-24T17:10:48;5.25;;;3.15;;
73869;SDS011;64924;42.140;24.762;2023-03-24T17:13:20;8.05;;;3.47;;
73869;SDS011;64924;42.140;24.762;2023-03-24T17:15:48;6.82;;;3.47;;
73869;SDS011;64924;42.140;24.762;2023-03-24T17:18:14;5.78;;;3.70;;
73869;SDS011;64924;42.140;24.762;2023-03-24T17:20:39;5.57;;;3.65;;
73869;SDS011;64924;42.140;24.762;2023-03-24T17:23:06;9.45;;;4.72;;
73869;SDS011;64924;42.140;24.762;2023-03-24T17:25:33;6.57;;;4.50;;
73869;SDS011;64924;42.140;24.762;2023-03-24T17:27:59;8.07;;;4.70;;
73869;SDS011;64924;42.140;24.762;2023-03-24T17:30:25;8.98;;;4.95;;